Time;durP1;ratioP1;P1;durP2;ratioP2;P2;SDS_P1;SDS_P2;PMS_P1;PMS_P2;Temp;Humidity;BMP_temperature;BMP_pressure;BME280_temperature;BME280_humidity;BME280_pressure;Samples;Min_cycle;Max_cycle;Signal;HPM_P1;HPM_P2
2023/01/31 00:00:54;;;;;;;15.50;1.77;;;4.60;99.90;;;;;;7409627;19;19970;-73
2023/01/31 00:03:24;;;;;;;19.17;2.97;;;4.70;99.90;;;;;;7411819;19;19928;-73
2023/01/31 00:05:53;;;;;;;8.52;1.52;;;3.90;99.90;;;;;;7419747;19;19926;-74
2023/01/31 00:08:22;;;;;;;21.48;2.78;;;3.90;99.90;;;;;;7410509;19;19943;-73
2023/01/31 00:11:00;;;;;;;12.07;1.77;;;4.50;99.90;;;;;;7410866;19;19923;-73
2023/01/31 00:13:29;;;;;;;10.35;1.55;;;3.00;99.90;;;;;;7407264;19;20340;-73
2023/01/31 00:15:58;;;;;;;11.68;1.80;;;3.90;99.90;;;;;;7411238;19;19928;-73
2023/01/31 00:18:28;;;;;;;14.60;2.17;;;3.80;99.90;;;;;;7407403;19;19911;-73
2023/01/31 00:20:57;;;;;;;13.45;1.95;;;4.60;99.90;;;;;;7406878;19;19930;-73
2023/01/31 00:23:26;;;;;;;9.35;1.80;;;3.10;99.90;;;;;;7409974;19;20291;-73
2023/01/31 00:26:09;;;;;;;12.85;2.45;;;3.80;99.90;;;;;;7406783;19;20344;-73
2023/01/31 00:28:39;;;;;;;12.90;1.92;;;3.90;99.90;;;;;;7407258;19;19918;-73
2023/01/31 00:31:09;;;;;;;9.35;2.00;;;3.80;99.90;;;;;;7408419;19;19910;-73
2023/01/31 00:33:39;;;;;;;14.70;2.10;;;4.10;99.90;;;;;;7410604;19;19925;-73
2023/01/31 00:36:10;;;;;;;13.20;2.17;;;3.90;99.90;;;;;;7406970;19;20600;-73
2023/01/31 00:38:41;;;;;;;8.85;1.52;;;3.50;99.90;;;;;;7407451;19;19933;-73
2023/01/31 00:41:13;;;;;;;13.27;1.42;;;4.00;99.90;;;;;;7408880;19;19933;-73
2023/01/31 00:43:41;;;;;;;17.02;2.05;;;4.10;99.90;;;;;;7409614;19;20356;-73
2023/01/31 00:46:10;;;;;;;12.60;2.20;;;4.40;99.90;;;;;;7407695;19;19926;-73
2023/01/31 00:48:40;;;;;;;12.70;1.70;;;3.50;99.90;;;;;;7410959;19;19926;-73
2023/01/31 00:51:10;;;;;;;10.50;1.60;;;4.40;99.90;;;;;;7410152;19;19929;-73
2023/01/31 00:53:40;;;;;;;9.13;1.73;;;3.50;99.90;;;;;;7408178;19;20015;-73
2023/01/31 00:56:14;;;;;;;12.57;2.33;;;3.80;99.90;;;;;;7408455;19;19922;-73
2023/01/31 00:58:44;;;;;;;11.45;2.70;;;2.60;99.90;;;;;;7408827;19;19986;-73
2023/01/31 01:01:16;;;;;;;12.23;2.70;;;3.40;99.90;;;;;;7406257;19;20332;-73
2023/01/31 01:03:47;;;;;;;15.75;1.85;;;2.50;99.90;;;;;;7406294;19;19925;-73
2023/01/31 01:06:16;;;;;;;13.90;1.85;;;2.80;99.90;;;;;;7410024;19;19986;-73
2023/01/31 01:08:46;;;;;;;10.18;1.60;;;3.40;99.90;;;;;;7409231;19;19925;-73
2023/01/31 01:11:20;;;;;;;17.02;2.85;;;4.20;99.90;;;;;;7407838;19;19922;-73
2023/01/31 01:13:50;;;;;;;8.32;1.52;;;3.40;99.90;;;;;;7407628;19;20391;-73
2023/01/31 01:16:23;;;;;;;12.65;2.08;;;3.30;99.90;;;;;;7406781;19;19966;-73
2023/01/31 01:18:53;;;;;;;11.18;1.30;;;3.50;99.90;;;;;;7408093;19;20339;-73
2023/01/31 01:21:25;;;;;;;17.30;2.15;;;3.80;99.90;;;;;;7407466;19;20359;-73
2023/01/31 01:23:55;;;;;;;9.07;1.70;;;3.70;99.90;;;;;;7408881;19;19970;-73
2023/01/31 01:26:28;;;;;;;12.82;1.80;;;4.10;99.90;;;;;;7406056;19;20360;-73
2023/01/31 01:28:59;;;;;;;12.35;2.35;;;3.30;99.90;;;;;;7406524;19;19939;-73
2023/01/31 01:31:29;;;;;;;10.45;1.40;;;3.90;99.90;;;;;;7406068;19;19914;-73
2023/01/31 01:34:00;;;;;;;8.80;1.30;;;3.80;99.90;;;;;;7405439;19;20291;-73
2023/01/31 01:36:30;;;;;;;9.75;2.50;;;3.40;99.90;;;;;;7405697;19;19945;-73
2023/01/31 01:38:59;;;;;;;13.77;1.35;;;3.80;99.90;;;;;;7408817;19;19918;-73
2023/01/31 01:41:32;;;;;;;12.77;1.65;;;3.40;99.90;;;;;;7406861;19;19927;-73
2023/01/31 01:44:02;;;;;;;14.50;1.83;;;3.40;99.90;;;;;;7406895;19;19929;-73
2023/01/31 01:46:35;;;;;;;16.33;2.03;;;3.80;99.90;;;;;;7405493;19;19943;-73
2023/01/31 01:49:14;;;;;;;12.95;1.88;;;3.30;99.90;;;;;;7404721;19;19911;-73
2023/01/31 01:51:45;;;;;;;16.23;2.53;;;3.40;99.90;;;;;;7407541;19;19911;-73
2023/01/31 01:54:18;;;;;;;11.50;2.10;;;4.20;99.90;;;;;;7408194;19;20001;-73
2023/01/31 01:56:56;;;;;;;8.60;1.20;;;3.20;99.90;;;;;;7404847;19;19918;-73
2023/01/31 01:59:30;;;;;;;13.05;2.13;;;2.10;99.90;;;;;;7403929;19;19926;-73
2023/01/31 02:01:59;;;;;;;7.35;1.70;;;3.10;99.90;;;;;;7407456;19;19931;-73
2023/01/31 02:04:32;;;;;;;11.45;1.63;;;2.40;99.90;;;;;;7404397;19;19923;-73
2023/01/31 02:07:01;;;;;;;17.73;1.95;;;2.70;99.90;;;;;;7405975;19;19926;-73
2023/01/31 02:09:36;;;;;;;12.68;2.33;;;3.30;99.90;;;;;;7402394;19;20342;-73
2023/01/31 02:12:14;;;;;;;9.20;0.85;;;3.10;99.90;;;;;;7407504;19;19974;-73
2023/01/31 02:14:44;;;;;;;5.28;1.23;;;3.30;99.90;;;;;;7405689;19;19935;-73
2023/01/31 02:17:14;;;;;;;7.88;1.23;;;2.70;99.90;;;;;;7404621;19;19910;-73
2023/01/31 02:19:52;;;;;;;10.70;1.48;;;3.20;99.90;;;;;;7403214;19;19919;-73
2023/01/31 02:22:27;;;;;;;12.45;1.48;;;3.60;99.90;;;;;;7407049;19;19922;-73
2023/01/31 02:25:26;;;;;;;8.10;1.58;;;3.00;99.90;;;;;;7405555;19;19923;-73
2023/01/31 02:28:25;;;;;;;11.32;1.58;;;2.70;99.90;;;;;;7408154;19;19974;-73
2023/01/31 02:31:24;;;;;;;9.52;1.33;;;2.10;99.90;;;;;;7402835;19;19933;-73
2023/01/31 02:34:05;;;;;;;9.20;1.55;;;3.70;99.90;;;;;;7407363;19;19978;-73
2023/01/31 02:36:45;;;;;;;8.23;1.80;;;3.10;99.90;;;;;;7407753;19;19918;-73
2023/01/31 02:39:23;;;;;;;11.55;2.25;;;3.00;99.90;;;;;;7403932;19;19922;-73
2023/01/31 02:41:58;;;;;;;7.82;1.27;;;2.60;99.90;;;;;;7404640;19;19923;-73
2023/01/31 02:47:27;;;;;;;8.15;1.73;;;4.00;99.90;;;;;;7409295;19;19938;-73
2023/01/31 02:50:02;;;;;;;5.78;0.85;;;3.10;99.90;;;;;;7412756;19;19929;-72
2023/01/31 02:52:38;;;;;;;10.52;1.45;;;4.20;99.90;;;;;;7406357;19;19907;-73
2023/01/31 02:57:57;;;;;;;8.98;1.65;;;3.80;99.90;;;;;;7403201;19;19935;-73
2023/01/31 03:00:28;;;;;;;11.98;1.38;;;3.30;99.90;;;;;;7405100;19;19985;-74
2023/01/31 03:02:57;;;;;;;11.65;1.60;;;3.90;99.90;;;;;;7406860;19;20018;-73
2023/01/31 03:05:29;;;;;;;5.82;1.73;;;3.90;99.90;;;;;;7403948;19;19939;-73
2023/01/31 03:08:03;;;;;;;5.88;1.10;;;3.30;99.90;;;;;;7402272;19;19934;-73
2023/01/31 03:10:52;;;;;;;12.35;1.85;;;3.30;99.90;;;;;;7403691;19;20268;-73
2023/01/31 03:13:34;;;;;;;8.27;1.27;;;3.20;99.90;;;;;;7406896;19;19982;-73
2023/01/31 03:19:03;;;;;;;13.75;2.05;;;3.20;99.90;;;;;;7402482;19;20257;-73
2023/01/31 03:21:40;;;;;;;14.23;1.85;;;3.30;99.90;;;;;;7403025;19;19954;-73
2023/01/31 03:24:10;;;;;;;10.18;2.22;;;2.80;99.90;;;;;;7408846;19;20270;-73
2023/01/31 03:26:40;;;;;;;12.68;1.25;;;3.20;99.90;;;;;;7411732;19;19978;-73
2023/01/31 03:29:12;;;;;;;13.18;1.27;;;2.70;99.90;;;;;;7408618;19;19929;-73
2023/01/31 03:31:46;;;;;;;4.85;1.52;;;3.10;99.90;;;;;;7409350;19;19923;-73
2023/01/31 03:34:16;;;;;;;8.98;1.67;;;2.60;99.90;;;;;;7411647;19;19918;-73
2023/01/31 03:36:57;;;;;;;9.73;1.10;;;3.20;99.90;;;;;;7412472;19;19953;-73
2023/01/31 03:39:36;;;;;;;8.50;1.17;;;3.20;99.90;;;;;;7408360;19;20008;-73
2023/01/31 03:42:08;;;;;;;8.60;1.40;;;3.60;99.90;;;;;;7406068;19;19926;-72
2023/01/31 03:44:44;;;;;;;6.55;1.50;;;3.10;99.90;;;;;;7408883;19;19942;-73
2023/01/31 03:47:18;;;;;;;7.00;1.38;;;3.90;99.90;;;;;;7413070;19;19928;-73
2023/01/31 03:49:50;;;;;;;10.25;1.17;;;3.20;99.90;;;;;;7408260;19;19914;-73
2023/01/31 03:52:27;;;;;;;8.60;1.83;;;3.60;99.90;;;;;;7408269;19;20018;-73
2023/01/31 03:55:03;;;;;;;15.32;1.85;;;3.20;99.90;;;;;;7409461;19;19927;-73
2023/01/31 03:57:36;;;;;;;12.68;1.73;;;3.30;99.90;;;;;;7407952;19;20340;-73
2023/01/31 04:00:08;;;;;;;5.82;1.75;;;3.30;99.90;;;;;;7408295;19;19933;-73
2023/01/31 04:02:40;;;;;;;12.63;2.45;;;3.50;99.90;;;;;;7407647;19;20332;-73
2023/01/31 04:05:13;;;;;;;9.32;1.13;;;2.80;99.90;;;;;;7408737;19;20344;-73
2023/01/31 04:07:48;;;;;;;12.43;1.90;;;2.90;99.90;;;;;;7410185;19;19914;-73
2023/01/31 04:10:20;;;;;;;8.23;1.50;;;2.60;99.90;;;;;;7409255;19;19914;-73
2023/01/31 04:12:49;;;;;;;11.32;1.30;;;3.30;99.90;;;;;;7409939;19;19918;-73
2023/01/31 04:15:18;;;;;;;13.02;1.60;;;3.40;99.90;;;;;;7407420;19;19918;-73
2023/01/31 04:17:47;;;;;;;13.88;2.20;;;3.40;99.90;;;;;;7412213;19;19915;-73
2023/01/31 04:20:16;;;;;;;8.88;1.67;;;3.80;99.90;;;;;;7407367;19;20332;-73
2023/01/31 04:22:48;;;;;;;10.05;1.55;;;3.40;99.90;;;;;;7410043;19;19926;-74
2023/01/31 04:25:20;;;;;;;9.65;1.40;;;3.50;99.90;;;;;;7407348;19;19922;-73
2023/01/31 04:27:50;;;;;;;13.57;1.60;;;2.90;99.90;;;;;;7407471;19;19910;-73
2023/01/31 04:30:20;;;;;;;9.43;1.00;;;3.40;99.90;;;;;;7407477;19;19915;-73
2023/01/31 04:32:50;;;;;;;11.93;1.63;;;3.40;99.90;;;;;;7403467;19;19918;-73
2023/01/31 04:35:19;;;;;;;6.00;1.80;;;3.50;99.90;;;;;;7404248;19;19935;-73
2023/01/31 04:37:54;;;;;;;8.10;1.63;;;3.90;99.90;;;;;;7404473;19;20356;-73
2023/01/31 04:40:23;;;;;;;13.07;3.58;;;3.50;99.90;;;;;;7403819;19;19932;-73
2023/01/31 04:42:52;;;;;;;9.20;1.55;;;3.50;99.90;;;;;;7404247;19;19927;-73
2023/01/31 04:45:21;;;;;;;13.50;1.60;;;3.40;99.90;;;;;;7406366;19;19919;-73
2023/01/31 04:47:50;;;;;;;7.85;1.25;;;3.50;99.90;;;;;;7403966;19;19918;-73
2023/01/31 04:50:19;;;;;;;7.60;1.10;;;3.60;99.90;;;;;;7404382;19;19918;-73
2023/01/31 04:52:54;;;;;;;14.93;1.83;;;3.40;99.90;;;;;;7404361;19;20284;-73
2023/01/31 04:55:24;;;;;;;8.23;1.35;;;3.70;99.90;;;;;;7403999;19;20289;-74
2023/01/31 04:57:53;;;;;;;8.38;1.83;;;3.70;99.90;;;;;;7403734;19;19919;-74
2023/01/31 05:00:23;;;;;;;10.15;1.60;;;3.50;99.90;;;;;;7403531;19;19942;-73
2023/01/31 05:02:52;;;;;;;12.10;1.73;;;3.40;99.90;;;;;;7404031;19;19939;-74
2023/01/31 05:05:22;;;;;;;10.30;1.60;;;3.60;99.90;;;;;;7403670;19;19911;-73
2023/01/31 05:07:54;;;;;;;11.77;1.77;;;3.60;99.90;;;;;;7405335;19;19922;-73
2023/01/31 05:10:23;;;;;;;14.73;2.08;;;3.50;99.90;;;;;;7404592;19;19926;-73
2023/01/31 05:12:52;;;;;;;10.13;1.58;;;3.80;99.90;;;;;;7403573;19;20271;-73
2023/01/31 05:15:21;;;;;;;8.93;1.50;;;3.70;99.90;;;;;;7406376;19;19930;-73
2023/01/31 05:18:01;;;;;;;14.52;2.38;;;4.30;99.90;;;;;;7403678;19;19941;-73
2023/01/31 05:20:32;;;;;;;14.75;1.55;;;3.60;99.90;;;;;;7403124;19;19910;-73
2023/01/31 05:23:04;;;;;;;8.60;1.65;;;4.80;99.90;;;;;;7403642;19;19921;-73
2023/01/31 05:25:33;;;;;;;7.28;1.50;;;4.20;99.90;;;;;;7403226;19;19921;-73
2023/01/31 05:28:09;;;;;;;7.38;1.48;;;3.80;99.90;;;;;;7405146;19;19918;-73
2023/01/31 05:30:38;;;;;;;14.50;3.00;;;3.20;99.90;;;;;;7264416;19;2793195;-73
2023/01/31 05:33:07;;;;;;;10.85;2.03;;;2.80;99.90;;;;;;7409799;19;19918;-73
2023/01/31 05:35:38;;;;;;;13.40;1.88;;;3.00;99.90;;;;;;7406564;19;19923;-73
2023/01/31 05:38:09;;;;;;;12.20;2.20;;;3.80;99.90;;;;;;7405890;19;19918;-73
2023/01/31 05:40:38;;;;;;;10.38;1.98;;;4.60;99.90;;;;;;7407029;19;19929;-73
2023/01/31 05:43:07;;;;;;;9.65;2.63;;;4.00;99.90;;;;;;7405167;19;19926;-73
2023/01/31 05:45:36;;;;;;;8.43;2.05;;;3.80;99.90;;;;;;7402725;19;19998;-73
2023/01/31 05:48:05;;;;;;;15.80;2.38;;;2.80;99.90;;;;;;7405499;19;19926;-73
2023/01/31 05:50:36;;;;;;;8.27;1.80;;;3.80;99.90;;;;;;7407129;19;19953;-73
2023/01/31 05:53:05;;;;;;;11.13;2.30;;;2.80;99.90;;;;;;7405009;19;19998;-73
2023/01/31 05:55:38;;;;;;;18.17;2.80;;;4.50;99.90;;;;;;7404881;19;19918;-73
2023/01/31 05:58:07;;;;;;;10.50;1.90;;;4.90;99.90;;;;;;7406016;19;20332;-72
2023/01/31 06:00:38;;;;;;;13.90;2.17;;;3.80;99.90;;;;;;7402958;19;20367;-73
2023/01/31 06:03:11;;;;;;;14.07;2.42;;;4.70;99.90;;;;;;7404870;19;19921;-73
2023/01/31 06:05:41;;;;;;;15.63;2.72;;;4.20;99.90;;;;;;7406152;19;19940;-73
2023/01/31 06:08:10;;;;;;;10.43;2.15;;;4.00;99.90;;;;;;7405063;19;19942;-73
2023/01/31 06:10:43;;;;;;;12.90;1.90;;;3.80;99.90;;;;;;7403963;19;19918;-73
2023/01/31 06:13:12;;;;;;;15.90;2.30;;;4.20;99.90;;;;;;7403821;19;19952;-73
2023/01/31 06:15:45;;;;;;;13.90;2.25;;;4.00;99.90;;;;;;7407619;19;19990;-73
2023/01/31 06:18:14;;;;;;;13.85;2.45;;;4.00;99.90;;;;;;7406923;19;19918;-72
2023/01/31 06:20:43;;;;;;;14.55;2.65;;;4.00;99.90;;;;;;7404244;19;20018;-73
2023/01/31 06:23:12;;;;;;;12.70;2.28;;;4.00;99.90;;;;;;7405367;19;19922;-72
2023/01/31 06:25:44;;;;;;;22.55;3.28;;;3.90;99.90;;;;;;7406844;19;20419;-73
2023/01/31 06:28:13;;;;;;;8.00;1.92;;;4.00;99.90;;;;;;7403850;19;19918;-73
2023/01/31 06:30:42;;;;;;;18.30;2.60;;;4.20;99.90;;;;;;7402897;19;20048;-72
2023/01/31 06:33:11;;;;;;;15.45;2.38;;;4.00;99.90;;;;;;7403776;19;19915;-73
2023/01/31 06:35:40;;;;;;;16.80;2.63;;;4.00;99.90;;;;;;7403491;19;19915;-73
2023/01/31 06:38:11;;;;;;;12.85;2.58;;;4.00;99.90;;;;;;7403687;19;19915;-73
2023/01/31 06:40:43;;;;;;;7.60;2.10;;;4.80;99.90;;;;;;7403606;19;19950;-73
2023/01/31 06:43:11;;;;;;;7.65;1.90;;;4.10;99.90;;;;;;7404262;19;19946;-73
2023/01/31 06:45:40;;;;;;;14.80;2.33;;;5.10;99.90;;;;;;7403321;19;19921;-73
2023/01/31 06:48:09;;;;;;;9.38;2.42;;;4.20;99.90;;;;;;7403219;19;19922;-73
2023/01/31 06:50:46;;;;;;;13.63;3.15;;;4.10;99.90;;;;;;7403737;19;19919;-73
2023/01/31 06:53:15;;;;;;;9.63;2.00;;;4.20;99.90;;;;;;7405422;19;19918;-72
2023/01/31 06:55:48;;;;;;;18.17;2.95;;;4.40;99.90;;;;;;7402456;19;20326;-73
2023/01/31 06:58:17;;;;;;;14.82;2.58;;;4.80;99.90;;;;;;7403281;19;19947;-73
2023/01/31 07:00:46;;;;;;;10.55;2.28;;;4.20;99.90;;;;;;7403309;19;19919;-73
2023/01/31 07:03:18;;;;;;;11.50;2.20;;;5.30;99.90;;;;;;7402091;19;19923;-73
2023/01/31 07:05:47;;;;;;;12.25;2.05;;;4.40;99.90;;;;;;7405161;19;19934;-73
2023/01/31 07:08:16;;;;;;;22.05;3.95;;;4.30;99.90;;;;;;7404182;19;19918;-73
2023/01/31 07:10:49;;;;;;;16.50;2.70;;;4.50;99.90;;;;;;7402096;19;19934;-73
2023/01/31 07:13:18;;;;;;;15.80;2.88;;;4.50;99.90;;;;;;7402515;19;19923;-72
2023/01/31 07:15:54;;;;;;;15.95;2.88;;;4.90;99.90;;;;;;7403921;19;19927;-73
2023/01/31 07:18:23;;;;;;;10.23;3.40;;;4.50;99.90;;;;;;7403532;19;19919;-73
2023/01/31 07:20:52;;;;;;;11.77;2.65;;;4.60;99.90;;;;;;7402650;19;19922;-73
2023/01/31 07:23:21;;;;;;;15.85;3.15;;;4.50;99.90;;;;;;7400145;19;19963;-73
2023/01/31 07:25:52;;;;;;;9.18;2.00;;;5.80;99.90;;;;;;7405705;19;20359;-73
2023/01/31 07:28:21;;;;;;;15.27;2.42;;;4.60;99.90;;;;;;7403437;19;19970;-73
2023/01/31 07:30:51;;;;;;;12.05;2.83;;;5.00;99.90;;;;;;7401537;19;19915;-75
2023/01/31 07:33:19;;;;;;;13.57;2.85;;;5.60;99.90;;;;;;7401671;19;20451;-73
2023/01/31 07:35:48;;;;;;;12.50;2.55;;;5.30;99.90;;;;;;7405081;19;19929;-73
2023/01/31 07:38:18;;;;;;;9.80;2.58;;;4.70;99.90;;;;;;7402785;19;20368;-72
2023/01/31 07:40:52;;;;;;;13.02;3.00;;;4.90;99.90;;;;;;7401342;19;19923;-72
2023/01/31 07:43:22;;;;;;;13.23;2.35;;;4.90;99.90;;;;;;7399933;19;19982;-73
2023/01/31 07:45:51;;;;;;;12.90;2.85;;;4.70;99.90;;;;;;7403266;19;19922;-73
2023/01/31 07:48:22;;;;;;;10.70;2.25;;;4.70;99.90;;;;;;7402892;19;19922;-73
2023/01/31 07:50:52;;;;;;;18.08;2.55;;;4.80;99.90;;;;;;7401555;19;20312;-73
2023/01/31 07:53:21;;;;;;;13.48;2.28;;;5.30;99.90;;;;;;7400891;19;19921;-73
2023/01/31 07:55:53;;;;;;;11.60;2.25;;;4.90;99.90;;;;;;7400986;19;19923;-73
2023/01/31 07:58:22;;;;;;;10.50;1.73;;;5.10;99.90;;;;;;7401789;19;19925;-72
2023/01/31 08:03:36;;;;;;;13.18;2.80;;;4.70;99.90;;;;;;7401743;19;19918;-72
2023/01/31 08:06:11;;;;;;;12.50;2.30;;;5.00;99.90;;;;;;7403083;19;19914;-73
2023/01/31 08:08:42;;;;;;;12.55;2.20;;;5.30;99.90;;;;;;7406841;19;19914;-72
2023/01/31 08:11:14;;;;;;;12.63;2.33;;;5.80;99.90;;;;;;7412458;19;20278;-72
2023/01/31 08:13:44;;;;;;;11.55;2.88;;;4.80;99.90;;;;;;7415100;19;19962;-72
2023/01/31 08:16:13;;;;;;;6.00;3.13;;;5.00;99.90;;;;;;7410592;19;19922;-72
2023/01/31 08:18:42;;;;;;;13.40;2.30;;;4.30;99.90;;;;;;7408131;19;20288;-72
2023/01/31 08:21:14;;;;;;;11.82;2.80;;;4.50;99.90;;;;;;7407071;19;20288;-72
2023/01/31 08:23:43;;;;;;;9.15;2.30;;;5.40;99.90;;;;;;7407504;19;19911;-73
2023/01/31 08:26:17;;;;;;;7.82;2.30;;;4.80;99.90;;;;;;7406964;19;19915;-72
2023/01/31 08:28:48;;;;;;;12.80;2.10;;;4.90;99.90;;;;;;7406811;19;20320;-72
2023/01/31 08:31:19;;;;;;;7.45;1.42;;;5.20;99.90;;;;;;7405764;19;19982;-72
2023/01/31 08:33:50;;;;;;;9.50;2.58;;;5.00;99.90;;;;;;7408918;19;19930;-72
2023/01/31 08:36:21;;;;;;;10.07;1.73;;;5.00;99.90;;;;;;7410295;19;19956;-72
2023/01/31 08:38:50;;;;;;;10.25;2.08;;;5.80;99.90;;;;;;7406806;19;19919;-72
2023/01/31 08:41:24;;;;;;;9.88;1.60;;;5.70;99.90;;;;;;7406726;19;19942;-72
2023/01/31 08:43:59;;;;;;;6.55;1.33;;;5.10;99.90;;;;;;7409606;19;19927;-73
2023/01/31 08:46:32;;;;;;;13.23;1.65;;;5.50;99.90;;;;;;7408104;19;19923;-73
2023/01/31 08:49:01;;;;;;;12.20;2.10;;;5.10;99.90;;;;;;7408429;19;19978;-73
2023/01/31 08:51:30;;;;;;;11.10;2.40;;;5.60;99.90;;;;;;7404315;19;19923;-73
2023/01/31 08:53:59;;;;;;;13.70;2.20;;;5.10;99.90;;;;;;7406539;19;19914;-73
2023/01/31 08:56:32;;;;;;;6.38;1.20;;;5.20;99.90;;;;;;7407817;19;19943;-73
2023/01/31 08:59:01;;;;;;;6.55;1.55;;;5.60;99.90;;;;;;7406400;19;20361;-73
2023/01/31 09:01:31;;;;;;;6.32;1.63;;;5.20;99.90;;;;;;7405979;19;20245;-72
2023/01/31 09:04:00;;;;;;;15.40;1.75;;;5.60;99.90;;;;;;7410583;19;20286;-72
2023/01/31 09:06:29;;;;;;;9.75;1.65;;;5.10;99.90;;;;;;7405652;19;19919;-72
2023/01/31 09:09:02;;;;;;;7.75;1.52;;;5.40;99.90;;;;;;7405624;19;19918;-72
2023/01/31 09:11:34;;;;;;;7.10;1.40;;;5.40;99.90;;;;;;7405585;19;19982;-73
2023/01/31 09:14:04;;;;;;;9.75;2.35;;;5.20;99.90;;;;;;7405967;19;19922;-72
2023/01/31 09:16:35;;;;;;;10.98;2.80;;;6.10;99.90;;;;;;7405238;19;19926;-72
2023/01/31 09:19:04;;;;;;;9.38;1.63;;;5.30;99.90;;;;;;7403831;19;19923;-73
2023/01/31 09:21:33;;;;;;;11.80;1.92;;;5.90;99.90;;;;;;7407883;19;20353;-72
2023/01/31 09:24:03;;;;;;;6.20;1.38;;;5.90;99.90;;;;;;7405321;19;20332;-72
2023/01/31 09:26:35;;;;;;;11.27;1.63;;;5.30;99.90;;;;;;7396361;19;19966;-74
2023/01/31 09:29:04;;;;;;;9.45;2.03;;;5.40;99.90;;;;;;7402115;19;19935;-74
2023/01/31 09:31:33;;;;;;;11.88;2.40;;;5.30;99.90;;;;;;7404029;19;19922;-74
2023/01/31 09:34:05;;;;;;;9.65;1.73;;;5.40;99.90;;;;;;7404140;19;19990;-75
2023/01/31 09:36:34;;;;;;;9.35;1.42;;;5.40;99.90;;;;;;7403502;19;19922;-76
2023/01/31 09:39:03;;;;;;;7.03;1.58;;;5.60;99.90;;;;;;7409025;19;20300;-74
2023/01/31 09:41:39;;;;;;;4.05;1.23;;;5.40;99.90;;;;;;7407522;19;20015;-73
2023/01/31 09:44:14;;;;;;;11.68;2.15;;;5.50;99.90;;;;;;7404320;19;20291;-73
2023/01/31 09:46:46;;;;;;;13.05;1.98;;;5.50;99.90;;;;;;7406039;19;19932;-74
2023/01/31 09:49:22;;;;;;;12.27;1.73;;;5.50;99.90;;;;;;7404532;19;19926;-75
2023/01/31 09:51:56;;;;;;;13.48;1.95;;;6.10;99.90;;;;;;7404843;19;19922;-75
2023/01/31 09:54:31;;;;;;;9.48;1.52;;;5.30;99.90;;;;;;7406334;19;19950;-74
2023/01/31 09:57:17;;;;;;;8.35;1.88;;;5.60;99.90;;;;;;7404294;19;19934;-73
2023/01/31 09:59:51;;;;;;;11.40;1.90;;;5.60;99.90;;;;;;7406699;19;19957;-74
2023/01/31 10:02:47;;;;;;;10.30;1.90;;;5.40;99.90;;;;;;7404773;19;19933;-73
2023/01/31 10:05:28;;;;;;;8.57;1.55;;;5.90;99.90;;;;;;7404429;19;19915;-72
2023/01/31 10:08:07;;;;;;;9.65;1.58;;;5.50;99.90;;;;;;7405750;19;20382;-70
2023/01/31 10:10:40;;;;;;;9.20;1.50;;;5.60;99.90;;;;;;7404044;19;19930;-72
2023/01/31 10:13:18;;;;;;;16.80;2.50;;;5.40;99.90;;;;;;7405216;19;19926;-72
2023/01/31 10:15:50;;;;;;;5.40;1.70;;;5.40;99.90;;;;;;7405989;19;19926;-73
2023/01/31 10:18:24;;;;;;;11.68;1.92;;;5.60;99.90;;;;;;7405487;19;19915;-74
2023/01/31 10:20:58;;;;;;;6.60;1.58;;;5.60;99.90;;;;;;7404618;19;19978;-75
2023/01/31 10:23:40;;;;;;;6.68;1.40;;;5.40;99.90;;;;;;7404073;19;19982;-74
2023/01/31 10:26:15;;;;;;;12.80;4.38;;;5.60;99.90;;;;;;7404691;19;19922;-75
2023/01/31 10:28:52;;;;;;;9.35;1.52;;;5.60;99.90;;;;;;7406208;19;19974;-75
2023/01/31 10:31:32;;;;;;;13.07;1.35;;;6.60;99.90;;;;;;7402054;19;19929;-72
2023/01/31 10:34:06;;;;;;;10.48;1.70;;;5.70;99.90;;;;;;7402816;19;19923;-74
2023/01/31 10:36:44;;;;;;;6.75;2.13;;;6.70;99.90;;;;;;7406040;19;19919;-76
2023/01/31 10:39:22;;;;;;;5.60;1.30;;;5.80;99.90;;;;;;7407646;19;19974;-78
2023/01/31 10:42:10;;;;;;;9.77;1.58;;;5.60;99.90;;;;;;7414280;19;19926;-77
2023/01/31 10:44:51;;;;;;;13.88;3.08;;;5.70;99.90;;;;;;7422303;19;19915;-76
2023/01/31 10:47:23;;;;;;;13.25;1.70;;;5.80;99.90;;;;;;7424568;19;20420;-76
2023/01/31 10:49:52;;;;;;;9.70;1.38;;;5.70;99.90;;;;;;7419916;19;19927;-74
2023/01/31 10:52:41;;;;;;;10.25;2.10;;;5.70;99.90;;;;;;7404322;19;20270;-74
2023/01/31 10:55:42;;;;;;;7.53;1.60;;;5.50;99.90;;;;;;7403956;19;19942;-75
2023/01/31 10:58:15;;;;;;;7.85;2.03;;;5.60;99.90;;;;;;7404600;19;19924;-77
2023/01/31 11:00:48;;;;;;;12.55;2.53;;;5.60;99.90;;;;;;7404237;19;19981;-74
2023/01/31 11:03:18;;;;;;;11.18;2.10;;;5.70;99.90;;;;;;7401837;19;20311;-74
2023/01/31 11:05:55;;;;;;;11.35;1.52;;;5.60;99.90;;;;;;7401446;19;20299;-75
2023/01/31 11:08:35;;;;;;;8.75;1.52;;;5.60;99.90;;;;;;7404171;19;19933;-75
2023/01/31 11:11:09;;;;;;;7.78;1.60;;;5.60;99.90;;;;;;7402362;19;20293;-74
2023/01/31 11:13:39;;;;;;;10.00;2.03;;;5.50;99.90;;;;;;7403603;19;19915;-76
2023/01/31 11:16:13;;;;;;;4.30;1.35;;;5.60;99.90;;;;;;7405035;19;19935;-76
2023/01/31 11:18:52;;;;;;;7.93;1.40;;;5.60;99.90;;;;;;7401849;19;19951;-75
2023/01/31 11:21:24;;;;;;;3.58;1.52;;;5.70;99.90;;;;;;7404925;19;20286;-76
2023/01/31 11:24:00;;;;;;;6.75;1.38;;;5.60;99.90;;;;;;7402769;19;19915;-78
2023/01/31 11:26:32;;;;;;;5.30;1.40;;;5.60;99.90;;;;;;7403457;19;20380;-75
2023/01/31 11:29:02;;;;;;;11.15;1.50;;;5.40;99.90;;;;;;7403345;19;19914;-76
2023/01/31 11:31:36;;;;;;;3.30;1.15;;;5.60;99.90;;;;;;7403294;19;19974;-77
2023/01/31 11:34:06;;;;;;;4.50;1.40;;;5.80;99.90;;;;;;7402902;19;20344;-73
2023/01/31 11:36:45;;;;;;;11.20;1.13;;;5.50;99.90;;;;;;7403587;19;19918;-76
2023/01/31 11:39:30;;;;;;;4.55;1.02;;;5.60;99.90;;;;;;7400656;19;19925;-76
2023/01/31 11:42:08;;;;;;;3.80;1.23;;;5.50;99.90;;;;;;7400295;19;19926;-75
2023/01/31 11:44:37;;;;;;;6.05;1.30;;;5.60;99.90;;;;;;7404338;19;19926;-75
2023/01/31 11:47:14;;;;;;;8.30;1.58;;;5.80;99.90;;;;;;7409118;19;19918;-75
2023/01/31 11:49:44;;;;;;;5.75;1.30;;;5.80;99.90;;;;;;7408621;19;19922;-74
2023/01/31 11:52:16;;;;;;;13.45;1.63;;;5.70;99.90;;;;;;7409334;19;19942;-74
2023/01/31 11:54:48;;;;;;;4.32;1.70;;;6.00;99.90;;;;;;7407827;19;19933;-76
2023/01/31 11:57:19;;;;;;;6.93;1.95;;;5.70;99.90;;;;;;7409895;19;19929;-76
2023/01/31 11:59:51;;;;;;;4.90;0.90;;;6.20;99.90;;;;;;7408505;19;19918;-76
2023/01/31 12:02:32;;;;;;;4.93;1.42;;;5.70;99.90;;;;;;7402644;19;19928;-75
2023/01/31 12:05:09;;;;;;;8.20;0.90;;;5.60;99.90;;;;;;7405282;19;19918;-75
2023/01/31 12:07:45;;;;;;;7.70;1.33;;;5.90;99.90;;;;;;7405467;19;20465;-76
2023/01/31 12:10:36;;;;;;;6.40;2.45;;;5.80;99.90;;;;;;7407830;19;19928;-76
2023/01/31 12:13:15;;;;;;;5.20;1.00;;;6.30;99.90;;;;;;7408760;19;19918;-75
2023/01/31 12:15:57;;;;;;;7.55;2.08;;;6.80;99.90;;;;;;7407599;19;19933;-76
2023/01/31 12:18:48;;;;;;;5.70;1.35;;;5.90;99.90;;;;;;7407281;19;19946;-76
2023/01/31 12:21:22;;;;;;;6.53;2.10;;;5.80;99.90;;;;;;7406594;19;20020;-76
2023/01/31 12:23:59;;;;;;;8.32;1.20;;;5.90;99.90;;;;;;7397122;19;19930;-76
2023/01/31 12:26:37;;;;;;;8.95;1.58;;;6.60;99.90;;;;;;7405188;19;19919;-75
2023/01/31 12:29:37;;;;;;;5.38;0.98;;;6.10;99.90;;;;;;7407656;19;19923;-76
2023/01/31 12:32:18;;;;;;;8.00;1.38;;;6.00;99.90;;;;;;7402632;19;19970;-75
2023/01/31 12:35:19;;;;;;;10.32;2.08;;;6.20;99.90;;;;;;7404136;19;19930;-76
2023/01/31 12:37:58;;;;;;;7.65;1.48;;;7.00;99.90;;;;;;7404439;19;19922;-75
2023/01/31 12:40:39;;;;;;;8.07;1.42;;;7.10;99.90;;;;;;7407015;19;20253;-76
2023/01/31 12:43:24;;;;;;;7.63;1.70;;;6.20;99.90;;;;;;7404799;19;19922;-76
2023/01/31 12:46:06;;;;;;;11.80;1.70;;;6.30;99.90;;;;;;7407943;19;19949;-76
2023/01/31 12:48:56;;;;;;;9.48;2.40;;;6.30;99.90;;;;;;7407155;19;19926;-76
2023/01/31 12:51:43;;;;;;;14.65;2.25;;;6.40;99.90;;;;;;7407460;19;19922;-76
2023/01/31 12:54:27;;;;;;;12.65;4.45;;;6.50;99.90;;;;;;7405595;19;20326;-75
2023/01/31 12:57:03;;;;;;;14.57;1.90;;;6.40;99.90;;;;;;7406463;19;19922;-76
2023/01/31 12:59:52;;;;;;;9.40;1.83;;;6.50;99.90;;;;;;7407025;19;20407;-76
2023/01/31 13:02:40;;;;;;;10.50;2.08;;;7.40;99.90;;;;;;7406714;19;19935;-75
2023/01/31 13:05:20;;;;;;;8.00;1.65;;;6.50;99.90;;;;;;7369436;19;19922;-75
2023/01/31 13:07:59;;;;;;;10.32;3.05;;;6.60;99.90;;;;;;7383089;19;19954;-75
2023/01/31 13:10:36;;;;;;;12.60;1.95;;;7.40;99.90;;;;;;7388049;19;19919;-75
2023/01/31 13:13:16;;;;;;;12.63;2.05;;;6.90;99.90;;;;;;7387582;19;19926;-75
2023/01/31 13:15:49;;;;;;;11.82;2.00;;;6.70;99.90;;;;;;7383198;19;20013;-75
2023/01/31 13:18:19;;;;;;;10.32;1.65;;;6.70;99.90;;;;;;7380386;19;20336;-75
2023/01/31 13:20:53;;;;;;;9.85;2.40;;;6.60;99.90;;;;;;7382780;19;19935;-75
2023/01/31 13:23:30;;;;;;;7.88;1.50;;;7.20;99.90;;;;;;7380869;19;20284;-74
2023/01/31 13:26:06;;;;;;;13.10;2.55;;;6.60;99.90;;;;;;7380465;19;19918;-74
2023/01/31 13:28:42;;;;;;;10.43;1.45;;;6.90;99.90;;;;;;7381968;19;19922;-75
2023/01/31 13:31:18;;;;;;;9.90;1.85;;;7.00;99.90;;;;;;7380623;19;19922;-73
2023/01/31 13:33:52;;;;;;;8.82;1.55;;;7.00;99.90;;;;;;7380763;19;19999;-73